Time,TemperatureF,DewpointF,PressureIn,WindDirection,WindDirectionDegrees,WindSpeedMPH,WindSpeedGustMPH,Humidity,HourlyPrecipIn,Conditions,Clouds,dailyrainin,SoftwareType,DateUTC
2013-03-27 00:12:00,44.6,29.0,29.99,NW,321,8.0,11.0,55,0.00,,,0.00,weatherlink.com 1.10,2013-03-27 04:12:00,
2013-03-27 00:27:00,44.6,29.0,29.99,NW,323,9.0,15.0,55,0.00,,,0.00,weatherlink.com 1.10,2013-03-27 04:27:00,
2013-03-27 00:42:00,44.4,29.0,29.99,NW,315,10.0,12.0,56,0.00,,,0.00,weatherlink.com 1.10,2013-03-27 04:42:00,
2013-03-27 00:57:00,44.3,30.0,29.99,NNW,336,9.0,15.0,57,0.00,,,0.00,weatherlink.com 1.10,2013-03-27 04:57:00,
2013-03-27 01:12:00,44.0,30.0,30.00,NNW,343,8.0,14.0,58,0.00,,,0.00,weatherlink.com 1.10,2013-03-27 05:12:00,
2013-03-27 01:27:00,43.7,30.0,30.00,NNW,329,7.0,15.0,59,0.00,,,0.00,weatherlink.com 1.10,2013-03-27 05:27:00,
2013-03-27 01:42:00,43.4,30.0,30.00,NW,319,7.0,16.0,60,0.00,,,0.00,weatherlink.com 1.10,2013-03-27 05:42:00,
2013-03-27 01:57:00,43.2,30.0,30.00,NW,308,8.0,15.0,60,0.00,,,0.00,weatherlink.com 1.10,2013-03-27 05:57:00,
2013-03-27 02:12:00,42.9,30.0,29.99,NW,308,9.0,14.0,61,0.00,,,0.00,weatherlink.com 1.10,2013-03-27 06:12:00,
2013-03-27 02:28:00,42.5,30.0,29.99,NW,307,6.0,13.0,62,0.00,,,0.00,weatherlink.com 1.10,2013-03-27 06:28:00,
2013-03-27 02:43:00,42.2,30.0,29.99,NW,304,10.0,15.0,63,0.00,,,0.00,weatherlink.com 1.10,2013-03-27 06:43:00,
2013-03-27 02:58:00,41.9,30.0,29.99,NW,305,9.0,11.0,64,0.00,,,0.00,weatherlink.com 1.10,2013-03-27 06:58:00,
2013-03-27 03:13:00,41.6,31.0,29.99,NW,323,9.0,12.0,65,0.00,,,0.00,weatherlink.com 1.10,2013-03-27 07:13:00,
2013-03-27 03:28:00,41.3,30.0,29.99,NW,308,9.0,13.0,65,0.00,,,0.00,weatherlink.com 1.10,2013-03-27 07:28:00,
2013-03-27 03:43:00,41.2,31.0,30.00,NW,312,7.0,12.0,66,0.00,,,0.00,weatherlink.com 1.10,2013-03-27 07:43:00,
2013-03-27 03:58:00,41.0,30.0,30.00,NW,315,5.0,12.0,66,0.00,,,0.00,weatherlink.com 1.10,2013-03-27 07:58:00,
2013-03-27 04:13:00,40.9,30.0,30.00,NW,311,7.0,11.0,66,0.00,,,0.00,weatherlink.com 1.10,2013-03-27 08:13:00,
2013-03-27 04:28:00,40.8,30.0,30.00,NW,318,5.0,11.0,66,0.00,,,0.00,weatherlink.com 1.10,2013-03-27 08:28:00,
2013-03-27 04:43:00,40.7,30.0,30.00,NW,307,6.0,13.0,66,0.00,,,0.00,weatherlink.com 1.10,2013-03-27 08:43:00,
2013-03-27 04:58:00,40.8,30.0,30.00,WNW,301,8.0,15.0,66,0.00,,,0.00,weatherlink.com 1.10,2013-03-27 08:58:00,
2013-03-27 05:13:00,40.8,30.0,30.01,NW,311,6.0,17.0,66,0.00,,,0.00,weatherlink.com 1.10,2013-03-27 09:13:00,
2013-03-27 05:28:00,40.6,30.0,30.01,NW,314,8.0,16.0,66,0.00,,,0.00,weatherlink.com 1.10,2013-03-27 09:28:00,
2013-03-27 05:43:00,40.5,30.0,30.02,WNW,303,6.0,13.0,66,0.00,,,0.00,weatherlink.com 1.10,2013-03-27 09:43:00,
2013-03-27 05:58:00,40.4,29.0,30.02,NW,308,6.0,16.0,65,0.00,,,0.00,weatherlink.com 1.10,2013-03-27 09:58:00,
2013-03-27 06:13:00,40.2,30.0,30.02,NW,311,7.0,11.0,66,0.00,,,0.00,weatherlink.com 1.10,2013-03-27 10:13:00,
2013-03-27 06:28:00,39.8,30.0,30.03,WNW,298,5.0,9.0,67,0.00,,,0.00,weatherlink.com 1.10,2013-03-27 10:28:00,
2013-03-27 06:43:00,39.6,29.0,30.03,WNW,301,10.0,11.0,67,0.00,,,0.00,weatherlink.com 1.10,2013-03-27 10:43:00,
2013-03-27 06:58:00,39.5,29.0,30.04,WNW,300,3.0,10.0,67,0.00,,,0.00,weatherlink.com 1.10,2013-03-27 10:58:00,
2013-03-27 07:13:00,39.3,29.0,30.04,WNW,290,4.0,10.0,68,0.00,,,0.00,weatherlink.com 1.10,2013-03-27 11:13:00,
2013-03-27 07:28:00,39.4,30.0,30.04,WNW,301,8.0,12.0,68,0.00,,,0.00,weatherlink.com 1.10,2013-03-27 11:28:00,
2013-03-27 07:43:00,39.4,29.0,30.05,NW,307,8.0,14.0,67,0.00,,,0.00,weatherlink.com 1.10,2013-03-27 11:43:00,
2013-03-27 07:58:00,39.4,29.0,30.06,NW,308,6.0,13.0,67,0.00,,,0.00,weatherlink.com 1.10,2013-03-27 11:58:00,
2013-03-27 08:13:00,39.8,30.0,30.06,NW,307,8.0,17.0,67,0.00,,,0.00,weatherlink.com 1.10,2013-03-27 12:13:00,
2013-03-27 08:28:00,40.5,29.0,30.06,NW,309,13.0,18.0,65,0.00,,,0.00,weatherlink.com 1.10,2013-03-27 12:28:00,
2013-03-27 08:43:00,41.1,30.0,30.07,NW,319,10.0,18.0,64,0.00,,,0.00,weatherlink.com 1.10,2013-03-27 12:43:00,
2013-03-27 08:58:00,41.5,30.0,30.07,NW,316,10.0,18.0,63,0.00,,,0.00,weatherlink.com 1.10,2013-03-27 12:58:00,
2013-03-27 09:13:00,41.9,30.0,30.07,NW,309,8.0,17.0,62,0.00,,,0.00,weatherlink.com 1.10,2013-03-27 13:13:00,
2013-03-27 09:28:00,42.6,30.0,30.07,North,353,11.0,15.0,62,0.00,,,0.00,weatherlink.com 1.10,2013-03-27 13:28:00,
2013-03-27 09:43:00,42.7,29.0,30.07,NNW,333,16.0,20.0,59,0.00,,,0.00,weatherlink.com 1.10,2013-03-27 13:43:00,
2013-03-27 09:58:00,43.1,29.0,30.07,NW,305,15.0,20.0,59,0.00,,,0.00,weatherlink.com 1.10,2013-03-27 13:58:00,
2013-03-27 10:13:00,43.8,29.0,30.07,NNW,335,13.0,21.0,57,0.00,,,0.00,weatherlink.com 1.10,2013-03-27 14:13:00,
2013-03-27 10:28:00,44.2,29.0,30.07,NNW,327,14.0,26.0,55,0.00,,,0.00,weatherlink.com 1.10,2013-03-27 14:28:00,
2013-03-27 10:44:00,44.7,28.0,30.07,NW,313,12.0,23.0,53,0.00,,,0.00,weatherlink.com 1.10,2013-03-27 14:44:00,
2013-03-27 10:59:00,44.8,29.0,30.07,NW,326,17.0,22.0,55,0.00,,,0.00,weatherlink.com 1.10,2013-03-27 14:59:00,
2013-03-27 11:14:00,45.0,29.0,30.07,NW,311,17.0,22.0,54,0.00,,,0.00,weatherlink.com 1.10,2013-03-27 15:14:00,
2013-03-27 11:29:00,45.3,29.0,30.07,NNW,346,15.0,22.0,53,0.00,,,0.00,weatherlink.com 1.10,2013-03-27 15:29:00,
2013-03-27 11:44:00,45.8,28.0,30.07,WNW,294,13.0,25.0,51,0.00,,,0.00,weatherlink.com 1.10,2013-03-27 15:44:00,
2013-03-27 11:59:00,46.6,30.0,30.06,North,11,16.0,26.0,52,0.00,,,0.00,weatherlink.com 1.10,2013-03-27 15:59:00,
2013-03-27 12:14:00,46.5,29.0,30.07,North,356,14.0,24.0,50,0.00,,,0.00,weatherlink.com 1.10,2013-03-27 16:14:00,
2013-03-27 12:29:00,46.4,28.0,30.07,NW,308,20.0,27.0,49,0.00,,,0.00,weatherlink.com 1.10,2013-03-27 16:29:00,
2013-03-27 12:44:00,46.7,29.0,30.06,WNW,300,6.0,19.0,51,0.00,,,0.00,weatherlink.com 1.10,2013-03-27 16:44:00,
2013-03-27 12:59:00,46.5,28.0,30.06,NW,323,13.0,21.0,49,0.00,,,0.00,weatherlink.com 1.10,2013-03-27 16:59:00,
2013-03-27 13:14:00,47.3,28.0,30.06,NW,326,12.0,17.0,48,0.00,,,0.00,weatherlink.com 1.10,2013-03-27 17:14:00,
2013-03-27 13:29:00,47.3,28.0,30.05,NNW,336,17.0,24.0,47,0.00,,,0.00,weatherlink.com 1.10,2013-03-27 17:29:00,
2013-03-27 13:44:00,47.4,27.0,30.05,NW,313,13.0,25.0,45,0.00,,,0.00,weatherlink.com 1.10,2013-03-27 17:44:00,
2013-03-27 13:59:00,47.5,28.0,30.05,North,351,17.0,25.0,47,0.00,,,0.00,weatherlink.com 1.10,2013-03-27 17:59:00,
2013-03-27 14:14:00,47.7,28.0,30.04,NNW,333,15.0,24.0,46,0.00,,,0.00,weatherlink.com 1.10,2013-03-27 18:14:00,
2013-03-27 14:29:00,47.8,27.0,30.04,NNW,345,12.0,21.0,45,0.00,,,0.00,weatherlink.com 1.10,2013-03-27 18:29:00,
2013-03-27 14:44:00,48.7,27.0,30.04,WNW,300,17.0,27.0,44,0.00,,,0.00,weatherlink.com 1.10,2013-03-27 18:44:00,
2013-03-27 14:59:00,47.5,29.0,30.04,NNE,13,24.0,28.0,49,0.00,,,0.00,weatherlink.com 1.10,2013-03-27 18:59:00,
2013-03-27 15:14:00,48.2,29.0,30.04,NW,309,14.0,24.0,48,0.00,,,0.00,weatherlink.com 1.10,2013-03-27 19:14:00,
2013-03-27 15:29:00,47.2,30.0,30.04,NW,316,12.0,27.0,51,0.00,,,0.00,weatherlink.com 1.10,2013-03-27 19:29:00,
2013-03-27 15:44:00,47.3,30.0,30.05,North,11,28.0,32.0,51,0.00,,,0.00,weatherlink.com 1.10,2013-03-27 19:44:00,
2013-03-27 16:00:00,43.1,30.0,30.05,NNE,32,11.0,27.0,61,0.00,,,0.00,weatherlink.com 1.10,2013-03-27 20:00:00,
2013-03-27 16:14:00,46.0,31.0,30.05,NNW,328,24.0,28.0,56,0.00,,,0.00,weatherlink.com 1.10,2013-03-27 20:14:00,
2013-03-27 16:29:00,43.9,28.0,30.05,WNW,302,10.0,26.0,55,0.00,,,0.00,weatherlink.com 1.10,2013-03-27 20:29:00,
2013-03-27 16:44:00,45.8,30.0,30.05,NNW,342,14.0,22.0,55,0.00,,,0.00,weatherlink.com 1.10,2013-03-27 20:44:00,
2013-03-27 16:59:00,47.2,31.0,30.05,NW,313,8.0,21.0,54,0.00,,,0.00,weatherlink.com 1.10,2013-03-27 20:59:00,
2013-03-27 17:14:00,47.7,29.0,30.05,NW,305,14.0,26.0,49,0.00,,,0.00,weatherlink.com 1.10,2013-03-27 21:14:00,
2013-03-27 17:29:00,47.2,32.0,30.05,NW,314,23.0,27.0,55,0.00,,,0.00,weatherlink.com 1.10,2013-03-27 21:29:00,
2013-03-27 17:44:00,45.3,29.0,30.06,NW,311,10.0,26.0,53,0.00,,,0.00,weatherlink.com 1.10,2013-03-27 21:44:00,
2013-03-27 17:59:00,45.8,29.0,30.06,NW,305,8.0,22.0,53,0.00,,,0.00,weatherlink.com 1.10,2013-03-27 21:59:00,
2013-03-27 18:14:00,46.1,29.0,30.07,NW,313,9.0,14.0,52,0.00,,,0.00,weatherlink.com 1.10,2013-03-27 22:14:00,
2013-03-27 18:29:00,46.6,29.0,30.07,NW,310,7.0,18.0,51,0.00,,,0.00,weatherlink.com 1.10,2013-03-27 22:29:00,
2013-03-27 18:44:00,47.3,29.0,30.07,NW,307,12.0,16.0,49,0.00,,,0.00,weatherlink.com 1.10,2013-03-27 22:44:00,
2013-03-27 19:00:00,47.1,28.0,30.07,NNW,347,9.0,10.0,48,0.00,,,0.00,weatherlink.com 1.10,2013-03-27 23:00:00,
2013-03-27 19:14:00,47.0,26.0,30.07,NNW,333,8.0,18.0,44,0.00,,,0.00,weatherlink.com 1.10,2013-03-27 23:14:00,
2013-03-27 19:29:00,46.7,26.0,30.08,NW,319,9.0,11.0,44,0.00,,,0.00,weatherlink.com 1.10,2013-03-27 23:29:00,
2013-03-27 19:44:00,46.5,27.0,30.08,WNW,300,9.0,18.0,46,0.00,,,0.00,weatherlink.com 1.10,2013-03-27 23:44:00,
2013-03-27 19:59:00,46.1,26.0,30.09,NW,309,5.0,14.0,46,0.00,,,0.00,weatherlink.com 1.10,2013-03-27 23:59:00,
2013-03-27 20:14:00,45.9,25.0,30.09,WNW,303,10.0,14.0,45,0.00,,,0.00,weatherlink.com 1.10,2013-03-28 00:14:00,
2013-03-27 20:29:00,45.7,26.0,30.09,NW,314,7.0,14.0,46,0.00,,,0.00,weatherlink.com 1.10,2013-03-28 00:29:00,
2013-03-27 20:44:00,45.2,26.0,30.10,WNW,298,4.0,10.0,47,0.00,,,0.00,weatherlink.com 1.10,2013-03-28 00:44:00,
2013-03-27 20:59:00,44.5,26.0,30.10,NW,315,6.0,9.0,48,0.00,,,0.00,weatherlink.com 1.10,2013-03-28 00:59:00,
2013-03-27 21:14:00,44.3,27.0,30.11,WNW,298,5.0,9.0,50,0.00,,,0.00,weatherlink.com 1.10,2013-03-28 01:14:00,
2013-03-27 21:29:00,43.9,28.0,30.11,WNW,302,5.0,9.0,54,0.00,,,0.00,weatherlink.com 1.10,2013-03-28 01:29:00,
2013-03-27 21:44:00,43.6,28.0,30.12,NW,319,6.0,8.0,55,0.00,,,0.00,weatherlink.com 1.10,2013-03-28 01:44:00,
2013-03-27 22:00:00,43.2,28.0,30.12,NW,319,5.0,8.0,56,0.00,,,0.00,weatherlink.com 1.10,2013-03-28 02:00:00,
2013-03-27 22:15:00,43.1,28.0,30.12,NW,308,3.0,10.0,56,0.00,,,0.00,weatherlink.com 1.10,2013-03-28 02:15:00,
2013-03-27 22:30:00,42.7,28.0,30.12,NW,307,2.0,6.0,56,0.00,,,0.00,weatherlink.com 1.10,2013-03-28 02:30:00,
2013-03-27 22:45:00,42.4,28.0,30.12,NW,304,3.0,6.0,56,0.00,,,0.00,weatherlink.com 1.10,2013-03-28 02:45:00,
2013-03-27 23:00:00,42.0,28.0,30.12,NW,307,3.0,5.0,57,0.00,,,0.00,weatherlink.com 1.10,2013-03-28 03:00:00,
2013-03-27 23:15:00,41.7,28.0,30.12,WNW,301,3.0,5.0,58,0.00,,,0.00,weatherlink.com 1.10,2013-03-28 03:15:00,
2013-03-27 23:30:00,41.4,27.0,30.12,WNW,291,3.0,6.0,58,0.00,,,0.00,weatherlink.com 1.10,2013-03-28 03:30:00,
2013-03-27 23:45:00,41.2,28.0,30.12,WNW,301,8.0,8.0,59,0.00,,,0.00,weatherlink.com 1.10,2013-03-28 03:45:00,